Terminal Aerodrome Forecast
Issued by NWS

Home | Current Version | Previous Version | Graphics & Text | Print | Product List | Glossary On
Versions: 1 2 3 4 5 6 7 8 9 10 11 12 13 14 15 16 17 18 19 20 21 22 23 24 25 26
000
FTUS43 KABR 141100
TAFMBG
TAF
KMBG 141140Z 1412/1512 VRB04KT P6SM BKN050
      TEMPO 1412/1416 3SM -SHSN BKN025
     FM141600 36005KT P6SM VCSH BKN035
     FM141900 34013KT P6SM BKN040
     FM142100 36008KT P6SM SKC
     FM150200 12007KT P6SM SKC=

USA.gov is the U.S. government's official web portal to all federal, state and local government web resources and services.